Time;durP1;ratioP1;P1;durP2;ratioP2;P2;SDS_P1;SDS_P2;PMS_P1;PMS_P2;Temp;Humidity;BMP_temperature;BMP_pressure;BME280_temperature;BME280_humidity;BME280_pressure;Samples;Min_cycle;Max_cycle;Signal;HPM_P1;HPM_P2
2022/08/28 00:01:52;;;;;;;8.75;3.45;;;14.40;99.90;;;;;;6253665;22;20038;-83
2022/08/28 00:04:17;;;;;;;10.18;3.88;;;14.40;99.90;;;;;;6252728;22;20462;-83
2022/08/28 00:06:43;;;;;;;9.60;3.92;;;14.40;99.90;;;;;;6280060;22;20310;-83
2022/08/28 00:09:09;;;;;;;11.13;4.22;;;14.30;99.90;;;;;;6230096;22;20015;-83
2022/08/28 00:11:37;;;;;;;8.70;3.75;;;14.30;99.90;;;;;;6255431;22;20023;-82
2022/08/28 00:14:05;;;;;;;8.82;3.90;;;14.30;99.90;;;;;;6255047;22;20050;-83
2022/08/28 00:16:32;;;;;;;12.73;4.70;;;14.30;99.90;;;;;;6257776;22;20015;-83
2022/08/28 00:18:58;;;;;;;10.07;4.15;;;14.20;99.90;;;;;;6284201;22;20050;-83
2022/08/28 00:21:24;;;;;;;12.20;4.05;;;14.20;99.90;;;;;;6257107;22;20015;-83
2022/08/28 00:23:52;;;;;;;8.35;4.03;;;14.20;99.90;;;;;;6257165;22;20022;-83
2022/08/28 00:29:07;;;;;;;10.95;4.38;;;14.20;99.90;;;;;;6191227;22;20015;-83
2022/08/28 00:31:37;;;;;;;7.53;3.45;;;14.10;99.90;;;;;;6256079;22;20037;-83
2022/08/28 00:34:03;;;;;;;8.35;3.63;;;14.10;99.90;;;;;;6255419;22;20007;-83
2022/08/28 00:36:29;;;;;;;11.60;3.80;;;14.10;99.90;;;;;;6255746;22;20098;-82
2022/08/28 00:38:56;;;;;;;11.13;3.78;;;14.10;99.90;;;;;;6230876;22;20377;-83
2022/08/28 00:41:22;;;;;;;9.95;3.85;;;14.10;99.90;;;;;;6282626;22;20022;-82
2022/08/28 00:43:48;;;;;;;8.93;3.38;;;14.10;99.90;;;;;;6281880;22;20012;-83
2022/08/28 00:46:21;;;;;;;11.68;4.78;;;14.10;99.90;;;;;;6281888;22;20049;-83
2022/08/28 00:48:48;;;;;;;8.90;3.47;;;14.00;99.90;;;;;;6255432;22;20007;-83
2022/08/28 00:54:01;;;;;;;9.98;3.58;;;14.00;99.90;;;;;;6281807;22;20011;-83
2022/08/28 00:56:30;;;;;;;7.25;3.58;;;14.00;99.90;;;;;;6256862;22;20049;-83
2022/08/28 00:59:04;;;;;;;8.85;4.63;;;14.00;99.90;;;;;;6255939;22;20015;-83
2022/08/28 01:01:31;;;;;;;11.90;3.67;;;14.00;99.90;;;;;;6255891;22;20444;-83
2022/08/28 01:03:57;;;;;;;11.20;3.42;;;13.90;99.90;;;;;;6280780;22;20441;-83
2022/08/28 01:06:23;;;;;;;8.30;3.75;;;13.90;99.90;;;;;;6229695;22;20011;-83
2022/08/28 01:08:49;;;;;;;13.02;3.80;;;13.90;99.90;;;;;;6255276;22;20014;-83
2022/08/28 01:11:17;;;;;;;12.07;3.50;;;13.90;99.90;;;;;;6231526;22;20445;-83
2022/08/28 01:13:47;;;;;;;7.70;3.75;;;13.90;99.90;;;;;;6256239;22;20039;-83
2022/08/28 01:16:16;;;;;;;10.02;4.07;;;13.90;99.90;;;;;;6232285;22;20027;-83
2022/08/28 01:18:42;;;;;;;11.60;4.00;;;13.90;99.90;;;;;;6281650;22;20015;-83
2022/08/28 01:21:22;;;;;;;6.55;3.35;;;13.90;99.90;;;;;;6230755;22;20022;-83
2022/08/28 01:24:13;;;;;;;10.80;3.47;;;13.80;99.90;;;;;;6255340;22;20015;-83
2022/08/28 01:26:39;;;;;;;11.32;3.85;;;13.80;99.90;;;;;;6255781;22;20016;-83
2022/08/28 01:29:07;;;;;;;7.68;3.50;;;13.80;99.90;;;;;;6230971;22;20015;-83
2022/08/28 01:31:34;;;;;;;10.82;3.80;;;13.80;99.90;;;;;;6231216;22;20799;-83
2022/08/28 01:34:01;;;;;;;13.85;4.22;;;13.70;99.90;;;;;;6255962;22;20012;-82
2022/08/28 01:36:28;;;;;;;10.10;3.78;;;13.70;99.90;;;;;;6229468;22;20023;-83
2022/08/28 01:39:06;;;;;;;9.18;3.60;;;13.70;99.90;;;;;;6255150;22;20030;-83
2022/08/28 01:41:32;;;;;;;11.27;3.47;;;13.70;99.90;;;;;;6255711;22;20023;-83
2022/08/28 01:43:58;;;;;;;11.40;3.65;;;13.70;99.90;;;;;;6255134;22;20022;-82
2022/08/28 01:46:24;;;;;;;9.82;4.13;;;13.60;99.90;;;;;;6255316;22;20135;-83
2022/08/28 01:48:50;;;;;;;9.88;3.55;;;13.70;99.90;;;;;;6281168;22;20007;-83
2022/08/28 01:51:16;;;;;;;9.65;3.75;;;13.60;99.90;;;;;;6256270;22;20039;-83
2022/08/28 01:53:42;;;;;;;9.23;3.75;;;13.60;99.90;;;;;;6281307;22;20003;-83
2022/08/28 01:56:12;;;;;;;9.10;3.90;;;13.60;99.90;;;;;;6282448;22;20022;-83
2022/08/28 01:58:38;;;;;;;9.15;3.92;;;13.60;99.90;;;;;;6255658;22;20015;-83
2022/08/28 02:01:13;;;;;;;10.30;3.80;;;13.60;99.90;;;;;;6255394;22;20011;-83
2022/08/28 02:03:39;;;;;;;9.55;4.03;;;13.60;99.90;;;;;;6255482;22;20016;-83
2022/08/28 02:06:05;;;;;;;8.98;3.92;;;13.60;99.90;;;;;;6281338;22;20099;-82
2022/08/28 02:08:31;;;;;;;10.93;4.00;;;13.60;99.90;;;;;;6254724;22;20091;-83
2022/08/28 02:10:56;;;;;;;11.05;4.07;;;13.60;99.90;;;;;;6281794;22;20486;-83
2022/08/28 02:13:22;;;;;;;9.25;3.88;;;13.60;99.90;;;;;;6281053;22;20015;-83
2022/08/28 02:15:48;;;;;;;14.60;4.90;;;13.60;99.90;;;;;;6280887;22;20015;-83
2022/08/28 02:18:13;;;;;;;9.30;4.05;;;13.60;99.90;;;;;;6256044;22;20019;-83
2022/08/28 02:20:41;;;;;;;7.97;4.15;;;13.60;99.90;;;;;;6280505;22;20018;-83
2022/08/28 02:23:09;;;;;;;11.75;4.03;;;13.60;99.90;;;;;;6255564;22;20019;-83
2022/08/28 02:25:35;;;;;;;16.98;4.53;;;13.50;99.90;;;;;;6255049;22;20011;-83
2022/08/28 02:28:00;;;;;;;8.38;4.70;;;13.50;99.90;;;;;;6229599;22;20329;-83
2022/08/28 02:30:27;;;;;;;13.68;3.53;;;13.50;99.90;;;;;;6230121;22;20011;-83
2022/08/28 02:32:53;;;;;;;11.63;4.57;;;13.50;99.90;;;;;;6256697;22;20088;-82
2022/08/28 02:35:20;;;;;;;13.25;3.90;;;13.50;99.90;;;;;;6256336;22;20015;-83
2022/08/28 02:37:46;;;;;;;9.98;4.05;;;13.50;99.90;;;;;;6229050;22;20030;-83
2022/08/28 02:40:14;;;;;;;8.70;4.07;;;13.30;99.90;;;;;;6255620;22;20086;-83
2022/08/28 02:42:41;;;;;;;10.70;3.90;;;13.40;99.90;;;;;;6280465;22;20015;-83
2022/08/28 02:45:10;;;;;;;16.80;4.18;;;13.40;99.90;;;;;;6280066;22;20018;-83
2022/08/28 02:47:37;;;;;;;8.32;4.18;;;13.40;99.90;;;;;;6280837;22;20022;-82
2022/08/28 02:50:04;;;;;;;12.70;4.25;;;13.40;99.90;;;;;;6230959;22;20446;-83
2022/08/28 02:52:29;;;;;;;7.90;3.78;;;13.30;99.90;;;;;;6256885;22;20043;-82
2022/08/28 02:54:55;;;;;;;9.73;4.18;;;13.30;99.90;;;;;;6271612;22;20010;-79
2022/08/28 02:57:20;;;;;;;9.27;4.18;;;13.30;99.90;;;;;;6257858;22;20011;-83
2022/08/28 02:59:46;;;;;;;8.20;3.70;;;13.30;99.90;;;;;;6254611;22;20345;-82
2022/08/28 03:02:12;;;;;;;9.68;3.88;;;13.20;99.90;;;;;;6205948;22;20015;-82
2022/08/28 03:04:38;;;;;;;10.45;3.83;;;13.20;99.90;;;;;;6281633;22;20011;-83
2022/08/28 03:07:10;;;;;;;12.32;4.38;;;13.20;99.90;;;;;;6280863;22;20333;-82
2022/08/28 03:09:36;;;;;;;8.25;3.50;;;13.20;99.90;;;;;;6256191;22;20365;-83
2022/08/28 03:12:02;;;;;;;9.05;3.70;;;13.20;99.90;;;;;;6280485;22;20011;-83
2022/08/28 03:14:27;;;;;;;11.95;4.30;;;13.20;99.90;;;;;;6230586;22;20086;-83
2022/08/28 03:16:53;;;;;;;9.32;3.75;;;13.20;99.90;;;;;;6255380;22;20011;-83
2022/08/28 03:19:19;;;;;;;10.52;4.35;;;13.20;99.90;;;;;;6254971;22;20090;-83
2022/08/28 03:21:45;;;;;;;10.38;3.70;;;13.10;99.90;;;;;;6281086;22;20065;-83
2022/08/28 03:24:10;;;;;;;8.43;4.05;;;13.10;99.90;;;;;;6280547;22;20011;-82
2022/08/28 03:26:36;;;;;;;6.90;3.50;;;13.00;99.90;;;;;;6229655;22;20094;-83
2022/08/28 03:29:02;;;;;;;6.70;3.53;;;13.10;99.90;;;;;;6229548;22;20011;-83
2022/08/28 03:31:31;;;;;;;9.68;3.65;;;13.10;99.90;;;;;;6280174;22;20379;-83
2022/08/28 03:33:57;;;;;;;9.05;3.92;;;13.00;99.90;;;;;;6229990;22;20060;-83
2022/08/28 03:36:25;;;;;;;7.72;3.25;;;13.10;99.90;;;;;;6229476;22;20018;-83
2022/08/28 03:38:56;;;;;;;9.98;4.07;;;13.00;99.90;;;;;;6229386;22;20015;-82
2022/08/28 03:41:23;;;;;;;8.63;3.60;;;13.00;99.90;;;;;;6255170;22;20068;-82
2022/08/28 03:43:50;;;;;;;9.30;3.97;;;13.00;99.90;;;;;;6229644;22;20013;-82
2022/08/28 03:46:18;;;;;;;7.05;3.58;;;13.00;99.90;;;;;;6254701;22;20019;-83
2022/08/28 03:48:45;;;;;;;8.15;3.90;;;13.00;99.90;;;;;;6280492;22;20086;-83
2022/08/28 03:51:18;;;;;;;9.90;3.75;;;12.90;99.90;;;;;;6254324;22;20029;-82
2022/08/28 03:53:44;;;;;;;8.68;3.67;;;12.90;99.90;;;;;;6254088;22;20062;-82
2022/08/28 03:56:14;;;;;;;10.63;3.50;;;12.90;99.90;;;;;;6255155;22;20046;-82
2022/08/28 03:58:40;;;;;;;7.07;3.50;;;12.90;99.90;;;;;;6280975;22;20057;-83
2022/08/28 04:01:07;;;;;;;8.30;3.50;;;12.90;99.90;;;;;;6254952;22;20068;-82
2022/08/28 04:03:33;;;;;;;9.40;3.95;;;12.90;99.90;;;;;;6265514;22;20015;-83
2022/08/28 04:06:00;;;;;;;8.88;3.88;;;12.90;99.90;;;;;;6276223;22;20007;-82
2022/08/28 04:08:27;;;;;;;9.10;4.00;;;12.80;99.90;;;;;;6303925;22;20015;-82
2022/08/28 04:10:53;;;;;;;12.05;3.92;;;12.80;99.90;;;;;;6262427;22;20011;-82
2022/08/28 04:13:19;;;;;;;12.98;4.22;;;12.80;99.90;;;;;;6230241;22;20014;-83
2022/08/28 04:15:54;;;;;;;10.40;3.70;;;12.80;99.90;;;;;;6255108;22;20054;-83
2022/08/28 04:18:20;;;;;;;9.40;3.78;;;12.80;99.90;;;;;;6255203;22;20441;-83
2022/08/28 04:20:45;;;;;;;6.97;3.53;;;12.80;99.90;;;;;;6254546;22;20026;-82
2022/08/28 04:23:11;;;;;;;12.05;4.13;;;12.80;99.90;;;;;;6256050;22;20082;-82
2022/08/28 04:25:39;;;;;;;9.88;4.10;;;12.80;99.90;;;;;;6256036;22;20039;-83
2022/08/28 04:28:05;;;;;;;9.50;4.03;;;12.80;99.90;;;;;;6253897;22;20011;-83
2022/08/28 04:30:30;;;;;;;8.65;4.05;;;12.70;99.90;;;;;;6229216;22;20050;-82
2022/08/28 04:32:57;;;;;;;7.13;4.10;;;12.70;99.90;;;;;;6254113;22;20015;-82
2022/08/28 04:35:22;;;;;;;8.77;4.47;;;12.70;99.90;;;;;;6229315;22;20011;-82
2022/08/28 04:37:48;;;;;;;11.05;4.07;;;12.70;99.90;;;;;;6228555;22;20069;-82
2022/08/28 04:40:14;;;;;;;8.65;4.00;;;12.70;99.90;;;;;;6249694;22;20046;-82
2022/08/28 04:42:41;;;;;;;8.40;3.60;;;12.70;99.90;;;;;;6249480;22;20388;-82
2022/08/28 04:45:07;;;;;;;7.00;4.07;;;12.70;99.90;;;;;;6250287;22;20069;-82
2022/08/28 04:47:37;;;;;;;7.57;4.20;;;12.70;99.90;;;;;;6274747;22;20019;-83
2022/08/28 04:50:04;;;;;;;10.27;4.85;;;12.70;99.90;;;;;;6250095;22;20492;-82
2022/08/28 04:52:30;;;;;;;11.25;4.30;;;12.70;99.90;;;;;;6224651;22;20012;-83
2022/08/28 04:54:55;;;;;;;9.65;4.22;;;12.70;99.90;;;;;;6224765;22;20319;-82
2022/08/28 04:57:21;;;;;;;9.70;3.70;;;12.70;99.90;;;;;;6249094;22;20088;-82
2022/08/28 04:59:47;;;;;;;9.63;4.07;;;12.70;99.90;;;;;;6249548;22;20512;-82
2022/08/28 05:02:13;;;;;;;10.73;4.57;;;12.70;99.90;;;;;;6225555;22;20094;-82
2022/08/28 05:04:38;;;;;;;9.07;4.38;;;12.70;99.90;;;;;;6251625;22;20012;-82
2022/08/28 05:07:04;;;;;;;7.63;4.20;;;12.70;99.90;;;;;;6251010;22;20077;-82
2022/08/28 05:09:30;;;;;;;13.63;4.32;;;12.80;99.90;;;;;;6251239;22;20011;-83
2022/08/28 05:12:01;;;;;;;8.93;4.05;;;12.80;99.90;;;;;;6251246;22;20012;-82
2022/08/28 05:14:27;;;;;;;8.55;4.22;;;12.80;99.90;;;;;;6277196;22;20367;-82
2022/08/28 05:16:54;;;;;;;11.15;4.70;;;12.90;99.90;;;;;;6251681;22;20016;-82
2022/08/28 05:19:20;;;;;;;9.32;4.35;;;12.90;99.90;;;;;;6226792;22;20441;-83
2022/08/28 05:21:46;;;;;;;9.23;4.78;;;12.90;99.90;;;;;;6226204;22;20016;-82
2022/08/28 05:24:12;;;;;;;7.90;4.30;;;12.90;99.90;;;;;;6277332;22;20090;-82
2022/08/28 05:26:39;;;;;;;13.00;4.85;;;13.00;99.90;;;;;;6251139;22;20047;-82
2022/08/28 05:29:05;;;;;;;9.45;4.47;;;13.00;99.90;;;;;;6276495;22;20146;-82
2022/08/28 05:31:32;;;;;;;9.43;3.70;;;13.00;99.90;;;;;;6226180;22;20338;-82
2022/08/28 05:34:00;;;;;;;10.52;4.28;;;13.00;99.90;;;;;;6276407;22;20003;-83
2022/08/28 05:36:27;;;;;;;10.45;3.92;;;13.00;99.90;;;;;;6250847;22;20073;-82
2022/08/28 05:38:55;;;;;;;12.77;3.97;;;13.10;99.90;;;;;;6275743;22;20090;-82
2022/08/28 05:41:25;;;;;;;10.07;3.80;;;13.10;99.90;;;;;;6250604;22;20026;-83
2022/08/28 05:43:52;;;;;;;8.93;3.70;;;13.10;99.90;;;;;;6251093;22;20015;-82
2022/08/28 05:46:19;;;;;;;11.32;3.55;;;13.10;99.90;;;;;;6250829;22;20015;-82
2022/08/28 05:48:47;;;;;;;10.18;4.50;;;13.20;99.90;;;;;;6225261;22;20012;-82
2022/08/28 05:51:17;;;;;;;6.80;3.30;;;13.20;99.90;;;;;;6276272;22;20094;-83
2022/08/28 05:53:44;;;;;;;10.43;3.60;;;13.20;99.90;;;;;;6251177;22;20046;-84
2022/08/28 05:56:18;;;;;;;9.77;3.50;;;13.30;99.90;;;;;;6250829;22;20011;-82
2022/08/28 05:58:44;;;;;;;10.27;3.15;;;13.30;99.90;;;;;;6276381;22;20020;-83
2022/08/28 06:01:18;;;;;;;13.52;3.53;;;13.40;99.90;;;;;;6225527;22;20465;-83
2022/08/28 06:03:53;;;;;;;7.90;3.38;;;13.40;99.90;;;;;;6276291;22;20054;-84
2022/08/28 06:06:22;;;;;;;7.47;3.40;;;13.50;99.90;;;;;;6250469;22;20011;-84
2022/08/28 06:08:47;;;;;;;8.07;3.33;;;13.50;99.90;;;;;;6225805;22;20012;-86
2022/08/28 06:11:13;;;;;;;11.90;3.40;;;13.60;99.90;;;;;;6226176;22;20094;-85
2022/08/28 06:13:39;;;;;;;8.77;3.53;;;13.60;99.90;;;;;;6250140;22;20015;-84
2022/08/28 06:16:08;;;;;;;12.45;3.88;;;13.70;99.90;;;;;;6250858;22;20012;-84
2022/08/28 06:18:33;;;;;;;7.78;3.00;;;13.70;99.90;;;;;;6224665;22;20015;-84
2022/08/28 06:21:01;;;;;;;7.65;3.00;;;13.80;99.90;;;;;;6224685;22;20012;-85
2022/08/28 06:23:27;;;;;;;10.23;3.53;;;13.80;99.90;;;;;;6275621;22;20034;-85
2022/08/28 06:25:53;;;;;;;9.43;2.70;;;13.90;99.90;;;;;;6250757;22;20012;-85
2022/08/28 06:28:21;;;;;;;6.30;3.00;;;13.90;99.90;;;;;;6226988;22;20035;-84
2022/08/28 06:30:48;;;;;;;7.63;3.20;;;14.00;99.90;;;;;;6276978;22;20067;-84
2022/08/28 06:33:15;;;;;;;9.68;3.53;;;14.00;99.90;;;;;;6276531;22;20083;-85
2022/08/28 06:35:48;;;;;;;12.25;2.92;;;14.10;99.90;;;;;;6276877;22;20345;-85
2022/08/28 06:38:15;;;;;;;8.55;2.70;;;14.20;99.90;;;;;;6280896;22;20042;-82
2022/08/28 06:40:44;;;;;;;9.77;2.80;;;14.30;99.90;;;;;;6281686;22;20156;-84
2022/08/28 06:43:11;;;;;;;11.52;2.80;;;14.30;99.90;;;;;;6281660;22;20015;-84
2022/08/28 06:45:42;;;;;;;6.82;2.90;;;14.40;99.90;;;;;;6255224;22;20054;-86
2022/08/28 06:48:09;;;;;;;6.70;2.42;;;14.50;99.90;;;;;;6281023;22;20011;-85
2022/08/28 06:50:46;;;;;;;9.57;2.85;;;14.60;99.90;;;;;;6281856;22;20011;-86
2022/08/28 06:53:15;;;;;;;10.32;2.60;;;14.60;99.90;;;;;;6256299;22;20011;-85
2022/08/28 06:55:41;;;;;;;7.57;2.92;;;14.70;99.90;;;;;;6256143;22;20093;-85
2022/08/28 06:58:07;;;;;;;9.10;2.80;;;14.80;99.90;;;;;;6281706;22;20046;-84
2022/08/28 07:00:34;;;;;;;10.05;3.15;;;14.90;99.90;;;;;;6256517;22;20015;-84
2022/08/28 07:03:01;;;;;;;10.20;2.80;;;15.20;99.90;;;;;;6256158;22;20019;-84
2022/08/28 07:05:27;;;;;;;7.03;2.78;;;15.60;99.90;;;;;;6255170;22;20034;-85
2022/08/28 07:07:54;;;;;;;9.38;2.60;;;16.10;99.90;;;;;;6255403;22;20447;-84
2022/08/28 07:10:20;;;;;;;6.82;2.50;;;16.50;99.90;;;;;;6280920;22;20012;-85
2022/08/28 07:12:49;;;;;;;6.30;2.05;;;16.90;99.90;;;;;;6281356;22;20016;-84
2022/08/28 07:15:15;;;;;;;9.23;1.92;;;17.20;99.90;;;;;;6257613;22;20017;-85
2022/08/28 07:17:40;;;;;;;8.85;2.45;;;17.50;99.90;;;;;;6205813;22;20008;-85
2022/08/28 07:20:07;;;;;;;6.68;2.53;;;17.70;99.90;;;;;;6205674;22;20019;-84
2022/08/28 07:22:32;;;;;;;7.63;2.40;;;17.70;99.90;;;;;;6231096;22;20065;-84
2022/08/28 07:24:58;;;;;;;7.70;2.40;;;17.90;99.90;;;;;;6229576;22;20441;-85
2022/08/28 07:27:24;;;;;;;8.35;2.30;;;18.10;99.90;;;;;;6280778;22;20011;-84
2022/08/28 07:29:53;;;;;;;9.65;2.38;;;18.30;99.90;;;;;;6230341;22;20014;-84
2022/08/28 07:32:20;;;;;;;5.70;1.70;;;18.50;99.90;;;;;;6256521;22;20007;-84
2022/08/28 07:34:47;;;;;;;8.00;2.13;;;18.60;99.90;;;;;;6255188;22;20064;-84
2022/08/28 07:37:14;;;;;;;9.55;2.40;;;18.70;99.90;;;;;;6279439;22;20086;-85
2022/08/28 07:39:39;;;;;;;6.45;2.17;;;18.90;99.90;;;;;;6230279;22;20048;-84
2022/08/28 07:42:05;;;;;;;9.13;2.45;;;18.90;99.90;;;;;;6229538;22;20023;-85
2022/08/28 07:44:49;;;;;;;6.13;1.80;;;19.00;99.90;;;;;;6255421;22;20392;-85
2022/08/28 07:47:16;;;;;;;9.73;2.15;;;19.10;99.90;;;;;;6237401;22;20432;-85
2022/08/28 07:49:43;;;;;;;8.07;2.25;;;19.10;99.90;;;;;;6254113;22;20018;-85
2022/08/28 07:52:10;;;;;;;9.63;2.20;;;19.10;99.90;;;;;;6255621;22;20007;-85
2022/08/28 07:54:39;;;;;;;7.18;2.08;;;19.10;99.90;;;;;;6255957;22;20007;-85
2022/08/28 07:57:07;;;;;;;7.53;2.40;;;19.30;99.90;;;;;;6281021;22;20013;-84
2022/08/28 07:59:33;;;;;;;7.55;2.35;;;19.30;99.90;;;;;;6254752;22;20038;-85
2022/08/28 08:01:58;;;;;;;7.72;2.22;;;19.40;99.90;;;;;;6280290;22;20444;-84
2022/08/28 08:04:24;;;;;;;8.45;1.90;;;19.40;99.90;;;;;;6254712;22;20015;-84
2022/08/28 08:06:52;;;;;;;8.20;1.98;;;19.40;99.90;;;;;;6229409;22;20018;-84
2022/08/28 08:09:19;;;;;;;9.38;2.50;;;19.30;99.90;;;;;;6255482;22;20008;-84
2022/08/28 08:11:46;;;;;;;7.60;2.28;;;19.30;99.90;;;;;;6255718;22;20016;-85
2022/08/28 08:14:12;;;;;;;7.00;2.15;;;19.20;99.90;;;;;;6255319;22;20011;-85
2022/08/28 08:16:46;;;;;;;8.15;2.10;;;19.30;99.90;;;;;;6280783;22;20015;-85
2022/08/28 08:19:13;;;;;;;5.07;2.13;;;19.20;99.90;;;;;;6280594;22;20098;-85
2022/08/28 08:21:40;;;;;;;7.88;2.03;;;19.20;99.90;;;;;;6280601;22;20034;-85
2022/08/28 08:24:06;;;;;;;10.02;2.88;;;19.20;99.90;;;;;;6254951;22;20015;-85
2022/08/28 08:26:32;;;;;;;10.52;1.90;;;19.20;99.90;;;;;;6279544;22;20476;-85
2022/08/28 08:28:59;;;;;;;6.57;1.67;;;19.30;99.90;;;;;;6229443;22;20332;-84
2022/08/28 08:31:31;;;;;;;9.93;2.42;;;19.30;99.90;;;;;;6280220;22;20007;-85
2022/08/28 08:34:00;;;;;;;7.25;2.00;;;19.30;99.90;;;;;;6254466;22;20064;-84
2022/08/28 08:36:28;;;;;;;4.22;1.88;;;19.30;99.90;;;;;;6255986;22;20011;-85
2022/08/28 08:38:54;;;;;;;7.15;1.80;;;19.20;99.90;;;;;;6276664;22;20020;-84
2022/08/28 08:41:24;;;;;;;6.25;1.58;;;19.20;99.90;;;;;;6277190;22;20023;-84
2022/08/28 08:44:07;;;;;;;8.23;2.33;;;19.40;99.90;;;;;;6251570;22;20015;-85
2022/08/28 08:46:52;;;;;;;7.32;2.08;;;19.40;99.90;;;;;;6277144;22;20641;-86
2022/08/28 08:49:21;;;;;;;7.65;1.75;;;19.40;99.90;;;;;;6276742;22;20007;-84
2022/08/28 08:51:53;;;;;;;5.78;2.00;;;19.50;99.90;;;;;;6277166;22;20439;-84
2022/08/28 08:54:21;;;;;;;6.60;1.67;;;19.50;99.90;;;;;;6250978;22;20385;-85
2022/08/28 08:56:48;;;;;;;5.50;1.80;;;19.50;99.90;;;;;;6276515;22;20015;-84
2022/08/28 08:59:20;;;;;;;6.43;1.83;;;19.50;99.90;;;;;;6250925;22;20096;-85
2022/08/28 09:02:13;;;;;;;5.45;1.67;;;19.70;99.90;;;;;;6276408;22;20532;-85
2022/08/28 09:05:02;;;;;;;10.02;2.00;;;19.80;99.90;;;;;;6277023;22;20043;-84
2022/08/28 09:07:46;;;;;;;5.53;2.00;;;19.70;99.90;;;;;;6281226;22;20019;-85
2022/08/28 09:10:14;;;;;;;11.85;2.10;;;19.50;99.90;;;;;;6276984;22;20073;-84
2022/08/28 09:12:56;;;;;;;6.13;1.90;;;19.30;99.90;;;;;;6289311;22;20018;-86
2022/08/28 09:15:26;;;;;;;5.47;1.83;;;19.30;99.90;;;;;;6293764;22;20015;-83
2022/08/28 09:17:57;;;;;;;4.43;1.48;;;19.30;99.90;;;;;;6272104;22;20029;-85
2022/08/28 09:20:27;;;;;;;5.45;1.92;;;19.30;99.90;;;;;;6275896;22;20004;-86
2022/08/28 09:22:54;;;;;;;6.15;1.67;;;19.30;99.90;;;;;;6262256;22;20023;-87
2022/08/28 09:25:50;;;;;;;8.82;1.65;;;19.40;99.90;;;;;;6277208;22;20016;-87
2022/08/28 09:28:24;;;;;;;4.93;1.80;;;19.40;99.90;;;;;;6278953;22;20023;-86
2022/08/28 09:30:53;;;;;;;7.00;1.90;;;19.40;99.90;;;;;;6278982;22;20047;-86
2022/08/28 09:33:37;;;;;;;8.10;1.90;;;19.40;99.90;;;;;;6251246;22;20069;-85
2022/08/28 09:36:28;;;;;;;8.23;1.90;;;19.40;99.90;;;;;;6250394;22;20069;-84
2022/08/28 09:39:11;;;;;;;6.85;1.80;;;19.50;99.70;;;;;;6250177;22;20012;-85
2022/08/28 09:45:09;;;;;;;5.43;1.73;;;19.90;99.40;;;;;;6274341;22;20019;-85
2022/08/28 09:47:54;;;;;;;8.07;2.17;;;20.00;99.60;;;;;;6274818;22;20054;-86
2022/08/28 09:50:23;;;;;;;6.27;1.83;;;20.10;98.70;;;;;;6275760;22;20019;-86
2022/08/28 09:52:50;;;;;;;6.07;1.60;;;20.10;99.00;;;;;;6277897;22;20083;-86
2022/08/28 09:55:30;;;;;;;9.43;2.20;;;20.10;98.40;;;;;;6279094;22;20007;-86
2022/08/28 09:57:56;;;;;;;6.38;2.00;;;20.00;97.50;;;;;;6276477;22;20012;-86
2022/08/28 10:00:22;;;;;;;7.53;1.80;;;19.90;98.20;;;;;;6226640;22;20047;-87
2022/08/28 10:03:13;;;;;;;4.60;1.90;;;19.90;98.40;;;;;;6251023;22;20015;-84
2022/08/28 10:06:14;;;;;;;4.30;1.77;;;19.90;98.50;;;;;;6250551;22;20066;-87
2022/08/28 10:09:07;;;;;;;6.05;1.90;;;19.90;98.60;;;;;;6275900;22;20019;-78
2022/08/28 10:11:47;;;;;;;5.45;1.88;;;20.00;98.60;;;;;;6275430;22;20012;-76
2022/08/28 10:14:34;;;;;;;7.13;2.22;;;19.80;98.40;;;;;;6249875;22;20007;-77
2022/08/28 10:17:14;;;;;;;6.95;1.90;;;19.80;97.70;;;;;;6249127;22;20011;-80
2022/08/28 10:19:53;;;;;;;6.28;2.10;;;19.80;96.70;;;;;;6275537;22;20012;-79
2022/08/28 10:22:39;;;;;;;3.90;1.80;;;19.80;97.20;;;;;;6250405;22;20011;-79
2022/08/28 10:25:23;;;;;;;5.45;2.22;;;19.90;97.30;;;;;;6252060;22;20016;-79
2022/08/28 10:28:04;;;;;;;6.95;1.60;;;20.10;97.10;;;;;;6249137;22;20624;-77
2022/08/28 10:30:37;;;;;;;5.43;1.92;;;20.30;96.80;;;;;;6249970;22;20515;-78
2022/08/28 10:33:10;;;;;;;7.38;1.90;;;20.50;96.60;;;;;;6249561;22;20470;-83
2022/08/28 10:35:59;;;;;;;6.03;1.85;;;20.40;97.00;;;;;;6249336;22;20012;-79
2022/08/28 10:38:27;;;;;;;5.90;1.80;;;20.30;97.60;;;;;;6248242;22;20054;-79
2022/08/28 10:41:18;;;;;;;5.43;1.65;;;20.20;97.80;;;;;;6250171;22;20016;-79
2022/08/28 10:43:48;;;;;;;7.20;2.20;;;20.10;97.40;;;;;;6249624;22;20015;-79
2022/08/28 10:46:20;;;;;;;6.65;2.05;;;20.00;98.10;;;;;;6248868;22;20022;-77
2022/08/28 10:48:57;;;;;;;5.78;1.60;;;19.90;98.30;;;;;;6250269;22;20012;-78
2022/08/28 10:51:52;;;;;;;6.18;2.10;;;19.90;98.60;;;;;;6275648;22;20008;-78
2022/08/28 10:54:28;;;;;;;6.35;2.10;;;20.00;98.20;;;;;;6189101;22;20012;-80
2022/08/28 10:57:30;;;;;;;6.05;2.00;;;20.30;97.20;;;;;;6249237;22;20054;-78
2022/08/28 10:59:59;;;;;;;5.00;1.90;;;20.30;97.00;;;;;;6274272;22;20020;-79
2022/08/28 11:02:26;;;;;;;8.23;2.10;;;20.20;97.30;;;;;;6249326;22;20015;-79
2022/08/28 11:04:54;;;;;;;6.43;2.30;;;20.20;97.60;;;;;;6249915;22;20070;-78
2022/08/28 11:07:29;;;;;;;8.90;2.38;;;20.10;97.80;;;;;;6249137;22;20087;-77
2022/08/28 11:09:55;;;;;;;6.20;2.00;;;20.20;97.70;;;;;;6249399;22;20008;-78
2022/08/28 11:12:21;;;;;;;5.50;2.00;;;20.20;97.50;;;;;;6249115;22;20012;-76
2022/08/28 11:14:49;;;;;;;6.20;2.00;;;20.10;97.00;;;;;;6249269;22;20007;-76
2022/08/28 11:17:21;;;;;;;6.13;2.00;;;20.10;96.90;;;;;;6272193;22;20111;-74
2022/08/28 11:19:59;;;;;;;7.50;1.83;;;20.20;97.00;;;;;;6247870;22;20021;-75
2022/08/28 11:22:38;;;;;;;7.03;2.20;;;20.40;96.60;;;;;;6247812;22;20016;-75
2022/08/28 11:25:19;;;;;;;6.13;1.98;;;20.50;96.60;;;;;;6249847;22;20012;-76
2022/08/28 11:28:13;;;;;;;5.80;2.00;;;20.60;96.10;;;;;;6274144;22;20334;-76
2022/08/28 11:30:39;;;;;;;6.53;2.22;;;20.80;96.10;;;;;;6249765;22;20016;-77
2022/08/28 11:33:08;;;;;;;20.85;3.58;;;20.90;95.20;;;;;;6223539;22;20043;-76
2022/08/28 11:35:40;;;;;;;6.65;2.85;;;20.80;94.90;;;;;;6273755;22;20086;-76
2022/08/28 11:38:06;;;;;;;4.28;2.03;;;20.80;94.50;;;;;;6251286;22;20023;-78
2022/08/28 11:40:31;;;;;;;4.95;2.10;;;20.80;93.70;;;;;;6280402;22;20007;-77
2022/08/28 11:43:15;;;;;;;5.95;1.95;;;20.70;93.90;;;;;;6279677;22;20042;-77
2022/08/28 11:45:46;;;;;;;5.30;1.88;;;20.70;94.30;;;;;;6252361;22;20015;-76
2022/08/28 11:48:21;;;;;;;5.15;1.92;;;20.70;94.20;;;;;;6252624;22;20008;-76
2022/08/28 11:51:13;;;;;;;3.70;1.60;;;20.80;94.10;;;;;;6254648;22;20088;-78
2022/08/28 11:53:57;;;;;;;4.97;1.88;;;20.90;94.10;;;;;;6178194;22;20011;-75
2022/08/28 11:56:44;;;;;;;6.97;1.70;;;20.90;94.10;;;;;;6278905;22;20027;-76
2022/08/28 11:59:32;;;;;;;5.88;1.88;;;20.90;92.40;;;;;;6253055;22;20092;-77
2022/08/28 12:02:35;;;;;;;5.97;2.33;;;20.90;92.80;;;;;;6280002;22;20015;-78
2022/08/28 12:05:11;;;;;;;3.47;1.48;;;20.80;92.30;;;;;;6253745;22;20073;-76
2022/08/28 12:07:48;;;;;;;4.72;1.73;;;20.70;93.00;;;;;;6251773;22;20024;-77
2022/08/28 12:10:24;;;;;;;5.13;1.60;;;20.70;93.00;;;;;;6251696;22;20082;-76
2022/08/28 12:12:57;;;;;;;8.70;2.00;;;20.60;93.00;;;;;;6255169;22;20032;-76
2022/08/28 12:15:26;;;;;;;5.15;1.60;;;20.70;93.10;;;;;;6254131;22;20094;-76
2022/08/28 12:18:11;;;;;;;3.95;1.75;;;20.90;92.50;;;;;;6253841;22;20445;-77
2022/08/28 12:20:58;;;;;;;4.93;1.70;;;20.90;91.50;;;;;;6254372;22;20126;-76
2022/08/28 12:23:30;;;;;;;4.82;1.70;;;21.10;92.10;;;;;;6280231;22;20018;-77
2022/08/28 12:26:18;;;;;;;6.82;1.88;;;20.90;91.10;;;;;;6279909;22;20051;-76
2022/08/28 12:29:34;;;;;;;9.35;2.35;;;20.80;91.70;;;;;;6280719;22;20019;-77
2022/08/28 12:32:27;;;;;;;6.38;2.13;;;20.60;91.50;;;;;;6245617;22;20129;-76
2022/08/28 12:34:56;;;;;;;3.05;1.67;;;20.50;91.20;;;;;;6254495;22;20460;-76
2022/08/28 12:37:24;;;;;;;3.83;1.85;;;20.60;91.60;;;;;;6254986;22;20015;-77
2022/08/28 12:39:51;;;;;;;4.90;2.35;;;20.70;91.40;;;;;;6279878;22;20019;-76
2022/08/28 12:42:19;;;;;;;6.13;1.80;;;20.80;91.90;;;;;;6254166;22;20095;-76
2022/08/28 12:44:46;;;;;;;5.15;1.80;;;21.00;90.30;;;;;;6255659;22;20011;-77
2022/08/28 12:47:19;;;;;;;3.20;1.70;;;21.10;88.60;;;;;;6229782;22;20327;-76
2022/08/28 12:49:45;;;;;;;4.82;1.83;;;21.30;89.20;;;;;;6255308;22;20018;-77
2022/08/28 12:52:19;;;;;;;5.20;2.05;;;21.50;88.90;;;;;;6253295;22;20015;-77
2022/08/28 12:54:46;;;;;;;6.05;2.10;;;21.60;88.40;;;;;;6253880;22;20307;-77
2022/08/28 12:57:15;;;;;;;8.48;2.60;;;21.60;88.40;;;;;;6280006;22;20018;-77
2022/08/28 13:00:06;;;;;;;6.05;2.05;;;21.50;87.50;;;;;;6280318;22;20015;-77
2022/08/28 13:02:33;;;;;;;6.80;1.90;;;21.30;88.90;;;;;;6254517;22;20015;-77
2022/08/28 13:05:10;;;;;;;6.47;2.08;;;21.30;90.10;;;;;;6230087;22;20435;-77
2022/08/28 13:07:55;;;;;;;5.65;2.08;;;21.40;91.10;;;;;;6279013;22;20125;-76
2022/08/28 13:10:37;;;;;;;5.90;2.08;;;21.50;90.50;;;;;;6252063;22;20034;-77
2022/08/28 13:13:35;;;;;;;7.60;2.05;;;21.40;90.20;;;;;;6253624;22;20007;-77